Time;durP1;ratioP1;P1;durP2;ratioP2;P2;SDS_P1;SDS_P2;PMS_P1;PMS_P2;Temp;Humidity;BMP_temperature;BMP_pressure;BME280_temperature;BME280_humidity;BME280_pressure;Samples;Min_cycle;Max_cycle;Signal;HPM_P1;HPM_P2
2021/12/24 00:04:00;;;;;;;78.13;28.85;;;;;;;-0.77;100.00;98735.70;714811;1200;113931;-73
2021/12/24 00:19:16;;;;;;;62.35;25.58;;;;;;;0.34;97.19;98701.55;714694;1199;114154;-73
2021/12/24 00:49:42;;;;;;;73.10;29.25;;;;;;;0.65;94.13;98678.72;714270;1205;115186;-72
2021/12/24 01:04:44;;;;;;;69.70;27.80;;;;;;;0.90;93.80;98649.34;714213;1203;115472;-73
2021/12/24 01:19:49;;;;;;;66.18;27.23;;;;;;;1.32;92.06;98634.14;714249;1199;114364;-74
2021/12/24 01:50:14;;;;;;;66.78;28.58;;;;;;;-0.18;100.00;98582.30;714063;1205;113998;-73
2021/12/24 02:05:17;;;;;;;71.75;29.40;;;;;;;-0.14;100.00;98545.05;714414;1203;116123;-74
2021/12/24 02:35:48;;;;;;;66.83;28.23;;;;;;;0.09;100.00;98502.15;714091;1175;114677;-74
2021/12/24 03:06:16;;;;;;;83.78;30.00;;;;;;;0.13;100.00;98457.15;714174;1200;113989;-74
2021/12/24 03:21:25;;;;;;;73.55;29.15;;;;;;;0.13;100.00;98472.63;714216;1199;115119;-73
2021/12/24 03:36:27;;;;;;;75.80;30.15;;;;;;;0.20;100.00;98443.77;714103;1178;113844;-74
2021/12/24 04:06:33;;;;;;;184.73;58.28;;;;;;;0.44;100.00;98418.72;714042;1175;114377;-74
2021/12/24 05:22:34;;;;;;;93.07;35.83;;;;;;;0.34;100.00;98399.71;714158;1200;115465;-73
2021/12/24 05:37:37;;;;;;;81.73;33.63;;;;;;;0.31;100.00;98403.34;714052;1197;113923;-73
2021/12/24 05:52:39;;;;;;;84.25;33.20;;;;;;;0.36;100.00;98371.22;714060;1200;114864;-74
2021/12/24 06:07:41;;;;;;;82.50;31.60;;;;;;;0.42;100.00;98345.80;714262;1203;114434;-74
2021/12/24 06:22:44;;;;;;;80.55;32.60;;;;;;;0.37;100.00;98334.17;714077;1200;113844;-75
2021/12/24 06:37:46;;;;;;;84.97;33.73;;;;;;;0.30;100.00;98318.34;714017;1187;114427;-74
2021/12/24 06:52:49;;;;;;;91.30;36.33;;;;;;;0.34;100.00;98314.58;714149;1192;114005;-74
2021/12/24 07:07:52;;;;;;;156.73;54.23;;;;;;;0.21;100.00;98295.84;714087;1202;115538;-74
2021/12/24 07:22:54;;;;;;;91.87;35.13;;;;;;;0.19;100.00;98328.68;714309;1200;114473;-74
2021/12/24 07:37:57;;;;;;;105.30;38.05;;;;;;;0.25;100.00;98346.24;714907;1203;114075;-74
2021/12/24 07:52:59;;;;;;;96.40;38.38;;;;;;;0.51;100.00;98343.44;714522;1200;116007;-74
2021/12/24 08:08:02;;;;;;;105.65;39.90;;;;;;;0.35;100.00;98339.45;714442;1175;114622;-71
2021/12/24 08:23:04;;;;;;;154.65;51.80;;;;;;;0.30;100.00;98314.02;715176;1177;114370;-70
2021/12/24 08:38:07;;;;;;;92.50;35.03;;;;;;;0.29;100.00;98316.70;716308;1199;115195;-70
2021/12/24 08:53:11;;;;;;;98.80;35.48;;;;;;;0.30;100.00;98314.02;716136;1199;115452;-70
2021/12/24 09:08:13;;;;;;;160.40;54.73;;;;;;;0.29;100.00;98314.11;715060;1199;114089;-74
2021/12/24 09:23:18;;;;;;;88.30;36.55;;;;;;;0.22;100.00;98305.22;715060;1199;114211;-74
2021/12/24 09:38:32;;;;;;;90.20;34.48;;;;;;;0.23;100.00;98288.81;715297;1202;113924;-72
2021/12/24 09:53:38;;;;;;;121.20;40.47;;;;;;;0.43;100.00;98266.63;714672;1199;114795;-74
2021/12/24 10:08:41;;;;;;;83.30;32.33;;;;;;;0.51;100.00;98232.48;715241;1192;114259;-74
2021/12/24 10:23:47;;;;;;;91.20;32.45;;;;;;;0.44;100.00;98221.83;714813;1199;115547;-72
2021/12/24 10:38:55;;;;;;;69.28;26.10;;;;;;;0.44;100.00;98196.84;715022;1200;113979;-72
2021/12/24 10:54:05;;;;;;;78.30;28.53;;;;;;;0.71;100.00;98182.66;714775;1203;114345;-73
2021/12/24 11:09:07;;;;;;;196.87;113.37;;;;;;;0.88;100.00;98181.30;715374;1199;113991;-74
2021/12/24 11:24:10;;;;;;;80.87;32.03;;;;;;;0.94;100.00;98182.58;715348;1200;116374;-77
2021/12/24 11:39:13;;;;;;;61.50;24.07;;;;;;;0.95;100.00;98184.19;714969;1177;114439;-76
2021/12/24 11:54:18;;;;;;;55.23;22.58;;;;;;;0.94;100.00;98169.67;715029;1176;114820;-75
2021/12/24 12:09:39;;;;;;;94.93;32.18;;;;;;;1.03;100.00;98165.49;715123;1176;113984;-71
2021/12/24 12:24:58;;;;;;;165.80;52.35;;;;;;;1.22;100.00;98144.14;722957;1199;115563;-78
2021/12/24 12:40:26;;;;;;;151.45;46.33;;;;;;;1.03;100.00;98127.59;716891;1202;114164;-72
2021/12/24 12:55:34;;;;;;;76.83;28.53;;;;;;;1.07;100.00;98116.06;714724;1200;114508;-74
2021/12/24 13:10:37;;;;;;;101.90;38.30;;;;;;;1.04;100.00;98121.45;714560;1202;114101;-71
2021/12/24 13:25:40;;;;;;;51.60;20.60;;;;;;;0.99;100.00;98111.53;714853;1199;115589;-75
2021/12/24 13:40:42;;;;;;;347.50;154.20;;;;;;;0.86;100.00;98110.08;714909;1199;114086;-72
2021/12/24 13:55:47;;;;;;;84.78;34.48;;;;;;;0.91;100.00;98102.77;714782;1199;115229;-74
2021/12/24 14:11:05;;;;;;;106.10;37.20;;;;;;;0.83;100.00;98096.49;714993;1200;115242;-72
2021/12/24 14:26:08;;;;;;;102.27;35.53;;;;;;;0.83;100.00;98093.08;714844;1200;114325;-77
2021/12/24 14:41:17;;;;;;;69.35;26.58;;;;;;;0.74;100.00;98091.25;714751;1200;114548;-74
2021/12/24 14:56:20;;;;;;;75.43;29.90;;;;;;;0.82;100.00;98092.27;714750;1200;113926;-74
2021/12/24 15:11:28;;;;;;;78.08;30.25;;;;;;;0.93;100.00;98104.28;714584;1200;115283;-75
2021/12/24 15:26:31;;;;;;;69.50;26.85;;;;;;;0.99;100.00;98113.30;714828;1202;116967;-75
2021/12/24 15:41:34;;;;;;;77.10;28.73;;;;;;;1.06;100.00;98129.10;714372;1177;113955;-74
2021/12/24 15:56:37;;;;;;;97.70;36.97;;;;;;;1.25;100.00;98118.04;714435;1176;114906;-76
2021/12/24 16:11:39;;;;;;;80.20;31.00;;;;;;;1.33;100.00;98121.63;714679;1176;114418;-77
2021/12/24 16:26:41;;;;;;;91.20;30.78;;;;;;;1.36;100.00;98127.47;714417;1175;114308;-76
2021/12/24 16:41:46;;;;;;;102.58;34.90;;;;;;;1.53;100.00;98115.70;714896;1199;115527;-73
2021/12/24 16:56:49;;;;;;;73.33;28.18;;;;;;;1.61;100.00;98145.13;724119;1203;114879;-73
2021/12/24 17:11:51;;;;;;;83.57;30.00;;;;;;;1.72;100.00;98135.64;715366;1200;113883;-73
2021/12/24 17:27:00;;;;;;;68.98;28.25;;;;;;;1.72;100.00;98146.80;714443;1200;114629;-76
2021/12/24 17:42:02;;;;;;;60.43;23.60;;;;;;;1.73;100.00;98161.36;714635;1199;115160;-76
2021/12/24 17:57:07;;;;;;;61.55;25.05;;;;;;;1.84;100.00;98168.19;714653;1202;114798;-76
2021/12/24 18:12:11;;;;;;;39.37;16.70;;;;;;;1.71;100.00;98214.95;714842;1202;115368;-73
2021/12/24 18:27:15;;;;;;;15.63;6.18;;;;;;;1.27;100.00;98247.91;714759;1197;114089;-73
2021/12/24 18:42:17;;;;;;;19.40;8.73;;;;;;;1.00;100.00;98269.85;714811;1187;114974;-73
2021/12/24 18:57:19;;;;;;;35.45;12.93;;;;;;;0.73;100.00;98315.01;714457;1200;114192;-72
2021/12/24 19:12:22;;;;;;;23.83;9.15;;;;;;;0.65;100.00;98353.52;714365;1199;113999;-72
2021/12/24 19:27:24;;;;;;;12.83;5.15;;;;;;;0.47;100.00;98394.45;714771;1177;113812;-78
2021/12/24 19:42:26;;;;;;;11.13;5.03;;;;;;;0.24;100.00;98422.81;715459;1200;114580;-77
2021/12/24 19:57:29;;;;;;;9.30;4.20;;;;;;;0.16;100.00;98472.38;715525;1203;113787;-76
2021/12/24 20:12:32;;;;;;;8.90;3.95;;;;;;;-0.02;100.00;98520.14;715048;1177;114921;-75
2021/12/24 20:27:35;;;;;;;16.80;5.90;;;;;;;-0.11;100.00;98569.79;714666;1202;115527;-74
2021/12/24 20:42:37;;;;;;;11.45;4.38;;;;;;;-0.23;100.00;98595.49;714672;1177;113926;-75
2021/12/24 20:57:40;;;;;;;10.30;3.88;;;;;;;-0.39;100.00;98638.73;715130;1177;114688;-76
2021/12/24 21:12:43;;;;;;;19.23;6.13;;;;;;;-0.44;100.00;98658.84;714788;1177;114130;-77
2021/12/24 21:27:47;;;;;;;14.33;4.40;;;;;;;-0.61;100.00;98691.71;714907;1174;114695;-77
2021/12/24 21:42:54;;;;;;;13.28;4.58;;;;;;;-0.68;100.00;98740.23;715050;1178;114232;-78
2021/12/24 21:57:56;;;;;;;21.25;6.68;;;;;;;-0.88;100.00;98767.30;715243;1200;115307;-79
2021/12/24 22:13:02;;;;;;;19.20;5.00;;;;;;;-1.02;98.34;98803.41;714820;1177;113538;-78
2021/12/24 22:28:05;;;;;;;235.67;73.53;;;;;;;-1.35;96.87;98836.33;715105;1199;113885;-77
2021/12/24 22:43:09;;;;;;;480.20;132.40;;;;;;;-1.98;95.92;98865.84;715184;1177;114199;-79
2021/12/24 22:58:12;;;;;;;472.15;147.10;;;;;;;-2.40;95.50;98898.22;715504;1199;115452;-78
2021/12/24 23:13:14;;;;;;;241.25;77.75;;;;;;;-2.71;92.62;98933.32;715593;1176;114336;-78
2021/12/24 23:28:17;;;;;;;44.30;20.80;;;;;;;-3.00;91.33;98974.22;714966;1200;114274;-78
2021/12/24 23:43:24;;;;;;;31.13;11.33;;;;;;;-3.23;90.40;99001.09;714888;1177;114764;-78
2021/12/24 23:58:29;;;;;;;26.90;9.40;;;;;;;-3.48;89.84;99037.39;714359;1200;115505;-78
